クアラルンプール の空港の天気 - METARとTAF

クアラルンプール国際空港 ( WMKK / KUL ) - マレーシア スランゴール州セパン
飛行場実況気象(Metar)
観測時間03/26 15:00 +08 (03/26 07:00 UTC)
風向・風速南南西 3m/s
視程9000m
天気現象
少しの雲 雲底高度 520m
全天の4割程度の雲 雲底高度 550m
全天の8割程度の雲 雲底高度 8530m
気温30℃
湿度79%
気圧1008hPa
METARWMKK 260700Z 21006KT 150V260 9000 FEW017CB SCT018 BKN280 30/26 Q1008 TEMPO 5000 TS
過去の天気等 Google飛行場航空写真 Wunderground天気予報

過去48時間のMETAR

飛行場予報(TAF)
発表時間: 3/26 13:00 +08 (3/26 05:00 UTC)
予報対象時間: 26日14時 +08 ~ 27日20時 +08
風向・風速北北西 5m/s
視程10km以上
少しの積乱雲 雲底高度 520m
全天の4割程度の雲 雲底高度 4,270m
全天の8割程度の雲 雲底高度 8,530m
26日15時 +08 ~ 26日19時 +08 に一時的に
視程4,000m
天気現象雷雨
少しの積乱雲 雲底高度 460m
全天の4割程度の雲 雲底高度 550m
全天の8割程度の雲 雲底高度 4,570m
TAF WMKK 260500Z 2606/2712 33010KT 9999 FEW017CB SCT140 BKN280
TEMPO 2607/2611 4000 TSRA FEW015CB SCT018 BKN150